sensor_id;sensor_type;location;lat;lon;timestamp;temperature;humidity
9564;DHT22;4820;50.870;4.702;2023-09-18T00:01:43;20.50;99.90
9564;DHT22;4820;50.870;4.702;2023-09-18T00:04:09;20.50;99.90
9564;DHT22;4820;50.870;4.702;2023-09-18T00:06:36;20.50;99.90
9564;DHT22;4820;50.870;4.702;2023-09-18T00:09:03;20.50;99.90
9564;DHT22;4820;50.870;4.702;2023-09-18T00:11:28;20.50;99.90
9564;DHT22;4820;50.870;4.702;2023-09-18T00:13:54;20.50;99.90
9564;DHT22;4820;50.870;4.702;2023-09-18T00:16:19;20.60;99.90
9564;DHT22;4820;50.870;4.702;2023-09-18T00:18:45;20.70;99.90
9564;DHT22;4820;50.870;4.702;2023-09-18T00:21:12;20.70;99.90
9564;DHT22;4820;50.870;4.702;2023-09-18T00:23:38;20.70;99.90
9564;DHT22;4820;50.870;4.702;2023-09-18T00:26:03;20.60;99.90
9564;DHT22;4820;50.870;4.702;2023-09-18T00:28:29;20.60;99.90
9564;DHT22;4820;50.870;4.702;2023-09-18T00:30:55;20.60;99.90
9564;DHT22;4820;50.870;4.702;2023-09-18T00:33:20;20.70;99.90
9564;DHT22;4820;50.870;4.702;2023-09-18T00:35:51;20.70;99.90
9564;DHT22;4820;50.870;4.702;2023-09-18T00:38:17;20.70;99.90
9564;DHT22;4820;50.870;4.702;2023-09-18T00:40:43;20.70;99.90
9564;DHT22;4820;50.870;4.702;2023-09-18T00:43:10;20.70;99.90
9564;DHT22;4820;50.870;4.702;2023-09-18T00:45:41;20.70;99.90
9564;DHT22;4820;50.870;4.702;2023-09-18T00:48:07;20.70;99.90
9564;DHT22;4820;50.870;4.702;2023-09-18T00:50:33;20.60;99.90
9564;DHT22;4820;50.870;4.702;2023-09-18T00:53:01;20.60;99.90
9564;DHT22;4820;50.870;4.702;2023-09-18T00:55:30;20.60;99.90
9564;DHT22;4820;50.870;4.702;2023-09-18T00:57:56;20.70;99.90
9564;DHT22;4820;50.870;4.702;2023-09-18T01:00:22;20.80;99.90
9564;DHT22;4820;50.870;4.702;2023-09-18T01:02:48;20.80;99.90
9564;DHT22;4820;50.870;4.702;2023-09-18T01:05:14;20.80;99.90
9564;DHT22;4820;50.870;4.702;2023-09-18T01:07:45;20.80;99.90
9564;DHT22;4820;50.870;4.702;2023-09-18T01:10:13;20.90;99.90
9564;DHT22;4820;50.870;4.702;2023-09-18T01:12:53;20.80;99.90
9564;DHT22;4820;50.870;4.702;2023-09-18T01:15:32;20.80;99.90
9564;DHT22;4820;50.870;4.702;2023-09-18T01:17:59;20.80;99.90
9564;DHT22;4820;50.870;4.702;2023-09-18T01:20:25;20.80;99.90
9564;DHT22;4820;50.870;4.702;2023-09-18T01:22:51;20.70;99.90
9564;DHT22;4820;50.870;4.702;2023-09-18T01:25:16;20.60;99.90
9564;DHT22;4820;50.870;4.702;2023-09-18T01:27:42;20.60;99.90
9564;DHT22;4820;50.870;4.702;2023-09-18T01:30:08;20.60;99.90
9564;DHT22;4820;50.870;4.702;2023-09-18T01:32:35;20.60;99.90
9564;DHT22;4820;50.870;4.702;2023-09-18T01:35:03;20.60;99.90
9564;DHT22;4820;50.870;4.702;2023-09-18T01:37:31;20.50;99.90
9564;DHT22;4820;50.870;4.702;2023-09-18T01:39:58;20.50;99.90
9564;DHT22;4820;50.870;4.702;2023-09-18T01:42:26;20.50;99.90
9564;DHT22;4820;50.870;4.702;2023-09-18T01:44:53;20.50;99.90
9564;DHT22;4820;50.870;4.702;2023-09-18T01:47:21;20.50;99.90
9564;DHT22;4820;50.870;4.702;2023-09-18T01:49:48;20.40;99.90
9564;DHT22;4820;50.870;4.702;2023-09-18T01:52:14;20.40;99.90
9564;DHT22;4820;50.870;4.702;2023-09-18T01:54:40;20.40;99.90
9564;DHT22;4820;50.870;4.702;2023-09-18T01:57:06;20.50;99.90
9564;DHT22;4820;50.870;4.702;2023-09-18T01:59:35;20.50;99.90
9564;DHT22;4820;50.870;4.702;2023-09-18T02:02:01;20.50;99.90
9564;DHT22;4820;50.870;4.702;2023-09-18T02:04:29;20.50;99.90
9564;DHT22;4820;50.870;4.702;2023-09-18T02:06:56;20.30;99.90
9564;DHT22;4820;50.870;4.702;2023-09-18T02:09:22;20.30;99.90
9564;DHT22;4820;50.870;4.702;2023-09-18T02:11:48;20.40;99.90
9564;DHT22;4820;50.870;4.702;2023-09-18T02:14:15;20.30;99.90
9564;DHT22;4820;50.870;4.702;2023-09-18T02:16:42;20.30;99.90
9564;DHT22;4820;50.870;4.702;2023-09-18T02:19:11;20.40;99.90
9564;DHT22;4820;50.870;4.702;2023-09-18T02:21:37;20.40;99.90
9564;DHT22;4820;50.870;4.702;2023-09-18T02:24:04;20.40;99.90
9564;DHT22;4820;50.870;4.702;2023-09-18T02:26:30;20.40;99.90
9564;DHT22;4820;50.870;4.702;2023-09-18T02:28:59;20.40;99.90
9564;DHT22;4820;50.870;4.702;2023-09-18T02:31:25;20.30;99.90
9564;DHT22;4820;50.870;4.702;2023-09-18T02:33:51;20.50;99.90
9564;DHT22;4820;50.870;4.702;2023-09-18T02:36:17;20.50;99.90
9564;DHT22;4820;50.870;4.702;2023-09-18T02:38:43;20.50;99.90
9564;DHT22;4820;50.870;4.702;2023-09-18T02:41:10;20.60;99.90
9564;DHT22;4820;50.870;4.702;2023-09-18T02:43:36;20.50;99.90
9564;DHT22;4820;50.870;4.702;2023-09-18T02:46:05;20.50;99.90
9564;DHT22;4820;50.870;4.702;2023-09-18T02:48:31;20.50;99.90
9564;DHT22;4820;50.870;4.702;2023-09-18T02:51:01;20.50;99.90
9564;DHT22;4820;50.870;4.702;2023-09-18T02:53:29;20.50;99.90
9564;DHT22;4820;50.870;4.702;2023-09-18T02:55:59;20.40;99.90
9564;DHT22;4820;50.870;4.702;2023-09-18T02:58:25;20.40;99.90
9564;DHT22;4820;50.870;4.702;2023-09-18T03:00:55;20.30;99.90
9564;DHT22;4820;50.870;4.702;2023-09-18T03:03:23;20.30;99.90
9564;DHT22;4820;50.870;4.702;2023-09-18T03:05:49;20.40;99.90
9564;DHT22;4820;50.870;4.702;2023-09-18T03:08:16;20.40;99.90
9564;DHT22;4820;50.870;4.702;2023-09-18T03:10:43;20.40;99.90
9564;DHT22;4820;50.870;4.702;2023-09-18T03:13:12;20.40;99.90
9564;DHT22;4820;50.870;4.702;2023-09-18T03:15:38;20.40;99.90
9564;DHT22;4820;50.870;4.702;2023-09-18T03:18:05;20.30;99.90
9564;DHT22;4820;50.870;4.702;2023-09-18T03:20:32;20.30;99.90
9564;DHT22;4820;50.870;4.702;2023-09-18T03:22:59;20.20;99.90
9564;DHT22;4820;50.870;4.702;2023-09-18T03:25:25;20.10;99.90
9564;DHT22;4820;50.870;4.702;2023-09-18T03:27:52;20.10;99.90
9564;DHT22;4820;50.870;4.702;2023-09-18T03:30:20;20.20;99.90
9564;DHT22;4820;50.870;4.702;2023-09-18T03:32:48;20.30;99.90
9564;DHT22;4820;50.870;4.702;2023-09-18T03:35:14;20.30;99.90
9564;DHT22;4820;50.870;4.702;2023-09-18T03:37:53;20.30;99.90
9564;DHT22;4820;50.870;4.702;2023-09-18T03:40:22;20.30;99.90
9564;DHT22;4820;50.870;4.702;2023-09-18T03:42:47;20.20;99.90
9564;DHT22;4820;50.870;4.702;2023-09-18T03:45:15;20.20;99.90
9564;DHT22;4820;50.870;4.702;2023-09-18T03:47:43;20.10;99.90
9564;DHT22;4820;50.870;4.702;2023-09-18T03:50:09;20.00;99.90
9564;DHT22;4820;50.870;4.702;2023-09-18T03:52:36;20.00;99.90
9564;DHT22;4820;50.870;4.702;2023-09-18T03:55:02;20.00;99.90
9564;DHT22;4820;50.870;4.702;2023-09-18T03:57:29;20.00;99.90
9564;DHT22;4820;50.870;4.702;2023-09-18T03:59:54;20.00;99.90
9564;DHT22;4820;50.870;4.702;2023-09-18T04:02:25;20.00;99.90
9564;DHT22;4820;50.870;4.702;2023-09-18T04:04:53;19.90;99.90
9564;DHT22;4820;50.870;4.702;2023-09-18T04:07:18;19.90;99.90
9564;DHT22;4820;50.870;4.702;2023-09-18T04:09:45;20.00;99.90
9564;DHT22;4820;50.870;4.702;2023-09-18T04:12:11;20.00;99.90
9564;DHT22;4820;50.870;4.702;2023-09-18T04:14:38;20.00;99.90
9564;DHT22;4820;50.870;4.702;2023-09-18T04:17:04;20.00;99.90
9564;DHT22;4820;50.870;4.702;2023-09-18T04:19:30;20.00;99.90
9564;DHT22;4820;50.870;4.702;2023-09-18T04:21:56;20.00;99.90
9564;DHT22;4820;50.870;4.702;2023-09-18T04:24:23;20.00;99.90
9564;DHT22;4820;50.870;4.702;2023-09-18T04:26:49;20.00;99.90
9564;DHT22;4820;50.870;4.702;2023-09-18T04:29:16;20.00;99.90
9564;DHT22;4820;50.870;4.702;2023-09-18T04:31:42;20.00;99.90
9564;DHT22;4820;50.870;4.702;2023-09-18T04:34:08;19.90;99.90
9564;DHT22;4820;50.870;4.702;2023-09-18T04:36:33;19.90;99.90
9564;DHT22;4820;50.870;4.702;2023-09-18T04:38:59;19.80;99.90
9564;DHT22;4820;50.870;4.702;2023-09-18T04:41:25;19.80;99.90
9564;DHT22;4820;50.870;4.702;2023-09-18T04:43:51;19.70;99.90
9564;DHT22;4820;50.870;4.702;2023-09-18T04:46:17;19.70;99.90
9564;DHT22;4820;50.870;4.702;2023-09-18T04:48:43;19.60;99.90
9564;DHT22;4820;50.870;4.702;2023-09-18T04:51:09;19.60;99.90
9564;DHT22;4820;50.870;4.702;2023-09-18T04:53:38;19.60;99.90
9564;DHT22;4820;50.870;4.702;2023-09-18T04:56:04;19.60;99.90
9564;DHT22;4820;50.870;4.702;2023-09-18T04:58:31;19.50;99.90
9564;DHT22;4820;50.870;4.702;2023-09-18T05:00:58;19.50;99.90
9564;DHT22;4820;50.870;4.702;2023-09-18T05:03:24;19.40;99.90
9564;DHT22;4820;50.870;4.702;2023-09-18T05:05:50;19.40;99.90
9564;DHT22;4820;50.870;4.702;2023-09-18T05:08:16;19.40;99.90
9564;DHT22;4820;50.870;4.702;2023-09-18T05:10:42;19.30;99.90
9564;DHT22;4820;50.870;4.702;2023-09-18T05:13:09;19.30;99.90
9564;DHT22;4820;50.870;4.702;2023-09-18T05:15:35;19.30;99.90
9564;DHT22;4820;50.870;4.702;2023-09-18T05:18:01;19.30;99.90
9564;DHT22;4820;50.870;4.702;2023-09-18T05:20:28;19.30;99.90
9564;DHT22;4820;50.870;4.702;2023-09-18T05:22:55;19.30;99.90
9564;DHT22;4820;50.870;4.702;2023-09-18T05:25:22;19.30;99.90
9564;DHT22;4820;50.870;4.702;2023-09-18T05:27:49;19.30;99.90
9564;DHT22;4820;50.870;4.702;2023-09-18T05:30:25;19.30;99.90
9564;DHT22;4820;50.870;4.702;2023-09-18T05:32:54;19.30;99.90
9564;DHT22;4820;50.870;4.702;2023-09-18T05:35:20;19.20;99.90
9564;DHT22;4820;50.870;4.702;2023-09-18T05:37:47;19.20;99.90
9564;DHT22;4820;50.870;4.702;2023-09-18T05:40:14;19.20;99.90
9564;DHT22;4820;50.870;4.702;2023-09-18T05:42:42;19.20;99.90
9564;DHT22;4820;50.870;4.702;2023-09-18T05:45:12;19.10;99.90
9564;DHT22;4820;50.870;4.702;2023-09-18T05:47:39;19.10;99.90
9564;DHT22;4820;50.870;4.702;2023-09-18T05:50:10;19.10;99.90
9564;DHT22;4820;50.870;4.702;2023-09-18T05:52:40;19.10;99.90
9564;DHT22;4820;50.870;4.702;2023-09-18T05:55:06;19.10;99.90
9564;DHT22;4820;50.870;4.702;2023-09-18T05:57:33;19.10;99.90
9564;DHT22;4820;50.870;4.702;2023-09-18T05:59:59;19.00;99.90
9564;DHT22;4820;50.870;4.702;2023-09-18T06:02:25;19.00;99.90
9564;DHT22;4820;50.870;4.702;2023-09-18T06:05:00;19.00;99.90
9564;DHT22;4820;50.870;4.702;2023-09-18T06:07:30;19.00;99.90
9564;DHT22;4820;50.870;4.702;2023-09-18T06:09:57;19.00;99.90
9564;DHT22;4820;50.870;4.702;2023-09-18T06:12:23;19.00;99.90
9564;DHT22;4820;50.870;4.702;2023-09-18T06:14:49;19.00;99.90
9564;DHT22;4820;50.870;4.702;2023-09-18T06:17:15;19.00;99.90
9564;DHT22;4820;50.870;4.702;2023-09-18T06:19:45;19.00;99.90
9564;DHT22;4820;50.870;4.702;2023-09-18T06:22:11;19.10;99.90
9564;DHT22;4820;50.870;4.702;2023-09-18T06:24:38;19.10;99.90
9564;DHT22;4820;50.870;4.702;2023-09-18T06:27:05;19.10;99.90
9564;DHT22;4820;50.870;4.702;2023-09-18T06:29:34;19.10;99.90
9564;DHT22;4820;50.870;4.702;2023-09-18T06:32:00;19.10;99.90
9564;DHT22;4820;50.870;4.702;2023-09-18T06:34:26;19.10;99.90
9564;DHT22;4820;50.870;4.702;2023-09-18T06:36:53;19.10;99.90
9564;DHT22;4820;50.870;4.702;2023-09-18T06:39:19;19.10;99.90
9564;DHT22;4820;50.870;4.702;2023-09-18T06:41:45;19.10;99.90
9564;DHT22;4820;50.870;4.702;2023-09-18T06:44:11;19.10;99.90
9564;DHT22;4820;50.870;4.702;2023-09-18T06:46:38;19.10;99.90
9564;DHT22;4820;50.870;4.702;2023-09-18T06:49:06;19.10;99.90
9564;DHT22;4820;50.870;4.702;2023-09-18T06:51:32;19.20;99.90
9564;DHT22;4820;50.870;4.702;2023-09-18T06:53:57;19.10;99.90
9564;DHT22;4820;50.870;4.702;2023-09-18T06:56:24;19.20;99.90
9564;DHT22;4820;50.870;4.702;2023-09-18T06:58:50;19.20;99.90
9564;DHT22;4820;50.870;4.702;2023-09-18T07:01:20;19.20;99.90
9564;DHT22;4820;50.870;4.702;2023-09-18T07:03:46;19.20;99.90
9564;DHT22;4820;50.870;4.702;2023-09-18T07:06:16;19.20;99.90
9564;DHT22;4820;50.870;4.702;2023-09-18T07:08:45;19.20;99.90
9564;DHT22;4820;50.870;4.702;2023-09-18T07:11:10;19.20;99.90
9564;DHT22;4820;50.870;4.702;2023-09-18T07:13:37;19.20;99.90
9564;DHT22;4820;50.870;4.702;2023-09-18T07:16:03;19.20;99.90
9564;DHT22;4820;50.870;4.702;2023-09-18T07:18:29;19.20;99.90
9564;DHT22;4820;50.870;4.702;2023-09-18T07:20:56;19.20;99.90
9564;DHT22;4820;50.870;4.702;2023-09-18T07:23:21;19.20;99.90
9564;DHT22;4820;50.870;4.702;2023-09-18T07:25:50;19.10;99.90
9564;DHT22;4820;50.870;4.702;2023-09-18T07:28:16;19.10;99.90
9564;DHT22;4820;50.870;4.702;2023-09-18T07:30:43;19.10;99.90
9564;DHT22;4820;50.870;4.702;2023-09-18T07:33:10;19.10;99.90
9564;DHT22;4820;50.870;4.702;2023-09-18T07:35:36;19.10;99.90
9564;DHT22;4820;50.870;4.702;2023-09-18T07:38:01;19.10;99.90
9564;DHT22;4820;50.870;4.702;2023-09-18T07:40:27;19.10;99.90
9564;DHT22;4820;50.870;4.702;2023-09-18T07:42:53;19.10;99.90
9564;DHT22;4820;50.870;4.702;2023-09-18T07:45:20;19.20;99.90
9564;DHT22;4820;50.870;4.702;2023-09-18T07:47:45;19.30;99.90
9564;DHT22;4820;50.870;4.702;2023-09-18T07:50:12;19.30;99.90
9564;DHT22;4820;50.870;4.702;2023-09-18T07:52:38;19.50;99.90
9564;DHT22;4820;50.870;4.702;2023-09-18T07:55:04;19.60;99.90
9564;DHT22;4820;50.870;4.702;2023-09-18T07:57:30;19.60;99.90
9564;DHT22;4820;50.870;4.702;2023-09-18T08:00:00;19.70;99.90
9564;DHT22;4820;50.870;4.702;2023-09-18T08:02:34;19.80;99.90
9564;DHT22;4820;50.870;4.702;2023-09-18T08:05:01;19.80;99.90
9564;DHT22;4820;50.870;4.702;2023-09-18T08:07:27;19.80;99.90
9564;DHT22;4820;50.870;4.702;2023-09-18T08:09:53;19.80;99.90
9564;DHT22;4820;50.870;4.702;2023-09-18T08:12:19;19.90;99.90
9564;DHT22;4820;50.870;4.702;2023-09-18T08:14:45;20.00;99.90
9564;DHT22;4820;50.870;4.702;2023-09-18T08:17:10;20.00;99.90
9564;DHT22;4820;50.870;4.702;2023-09-18T08:19:37;20.10;99.90
9564;DHT22;4820;50.870;4.702;2023-09-18T08:22:05;20.20;99.90
9564;DHT22;4820;50.870;4.702;2023-09-18T08:24:31;20.30;99.90
9564;DHT22;4820;50.870;4.702;2023-09-18T08:26:57;20.40;99.90
9564;DHT22;4820;50.870;4.702;2023-09-18T08:29:22;20.50;99.90
9564;DHT22;4820;50.870;4.702;2023-09-18T08:31:48;20.50;99.90
9564;DHT22;4820;50.870;4.702;2023-09-18T08:34:15;20.60;99.90
9564;DHT22;4820;50.870;4.702;2023-09-18T08:36:41;20.70;99.90
9564;DHT22;4820;50.870;4.702;2023-09-18T08:39:07;20.80;99.90
9564;DHT22;4820;50.870;4.702;2023-09-18T08:41:33;21.00;99.90
9564;DHT22;4820;50.870;4.702;2023-09-18T08:44:02;21.10;99.90
9564;DHT22;4820;50.870;4.702;2023-09-18T08:46:29;21.10;99.90
9564;DHT22;4820;50.870;4.702;2023-09-18T08:48:56;21.20;99.90
9564;DHT22;4820;50.870;4.702;2023-09-18T08:51:23;21.30;99.90
9564;DHT22;4820;50.870;4.702;2023-09-18T08:53:49;21.20;99.90
9564;DHT22;4820;50.870;4.702;2023-09-18T08:56:17;21.20;99.90
9564;DHT22;4820;50.870;4.702;2023-09-18T08:58:43;21.20;99.90
9564;DHT22;4820;50.870;4.702;2023-09-18T09:01:10;21.30;99.90
9564;DHT22;4820;50.870;4.702;2023-09-18T09:03:38;21.30;99.90
9564;DHT22;4820;50.870;4.702;2023-09-18T09:06:07;21.30;99.90
9564;DHT22;4820;50.870;4.702;2023-09-18T09:08:36;21.20;99.90
9564;DHT22;4820;50.870;4.702;2023-09-18T09:11:03;21.20;99.90
9564;DHT22;4820;50.870;4.702;2023-09-18T09:13:31;21.20;99.90
9564;DHT22;4820;50.870;4.702;2023-09-18T09:15:58;21.30;99.90
9564;DHT22;4820;50.870;4.702;2023-09-18T09:18:26;21.30;99.90
9564;DHT22;4820;50.870;4.702;2023-09-18T09:20:59;21.40;99.90
9564;DHT22;4820;50.870;4.702;2023-09-18T09:23:42;21.50;99.90
9564;DHT22;4820;50.870;4.702;2023-09-18T09:26:16;21.50;99.90
9564;DHT22;4820;50.870;4.702;2023-09-18T09:28:43;21.60;99.90
9564;DHT22;4820;50.870;4.702;2023-09-18T09:31:10;21.60;99.90
9564;DHT22;4820;50.870;4.702;2023-09-18T09:33:36;21.50;99.90
9564;DHT22;4820;50.870;4.702;2023-09-18T09:36:06;21.50;99.90
9564;DHT22;4820;50.870;4.702;2023-09-18T09:38:33;21.50;99.90
9564;DHT22;4820;50.870;4.702;2023-09-18T09:41:04;21.60;99.90
9564;DHT22;4820;50.870;4.702;2023-09-18T09:43:35;21.60;99.90
9564;DHT22;4820;50.870;4.702;2023-09-18T09:46:01;21.70;99.90
9564;DHT22;4820;50.870;4.702;2023-09-18T09:48:27;21.80;99.90
9564;DHT22;4820;50.870;4.702;2023-09-18T09:50:58;21.90;99.90
9564;DHT22;4820;50.870;4.702;2023-09-18T09:53:45;21.90;99.90
9564;DHT22;4820;50.870;4.702;2023-09-18T09:56:14;22.00;99.90
9564;DHT22;4820;50.870;4.702;2023-09-18T09:58:40;22.00;99.90
9564;DHT22;4820;50.870;4.702;2023-09-18T10:01:12;22.00;99.90
9564;DHT22;4820;50.870;4.702;2023-09-18T10:03:44;22.10;99.90
9564;DHT22;4820;50.870;4.702;2023-09-18T10:06:11;22.10;99.90
9564;DHT22;4820;50.870;4.702;2023-09-18T10:08:40;22.10;99.90
9564;DHT22;4820;50.870;4.702;2023-09-18T10:11:08;22.10;99.90
9564;DHT22;4820;50.870;4.702;2023-09-18T10:14:02;22.10;99.90
9564;DHT22;4820;50.870;4.702;2023-09-18T10:16:31;22.10;99.90
9564;DHT22;4820;50.870;4.702;2023-09-18T10:19:11;22.00;99.90
9564;DHT22;4820;50.870;4.702;2023-09-18T10:24:24;21.90;99.90
9564;DHT22;4820;50.870;4.702;2023-09-18T10:26:55;21.80;99.90
9564;DHT22;4820;50.870;4.702;2023-09-18T10:29:22;21.90;99.90
9564;DHT22;4820;50.870;4.702;2023-09-18T10:31:52;22.10;99.90
9564;DHT22;4820;50.870;4.702;2023-09-18T10:34:20;22.20;99.90
9564;DHT22;4820;50.870;4.702;2023-09-18T10:36:52;22.20;99.90
9564;DHT22;4820;50.870;4.702;2023-09-18T10:39:18;22.20;99.90
9564;DHT22;4820;50.870;4.702;2023-09-18T10:41:52;22.20;99.90
9564;DHT22;4820;50.870;4.702;2023-09-18T10:44:19;22.30;99.90
9564;DHT22;4820;50.870;4.702;2023-09-18T10:46:46;22.30;99.90
9564;DHT22;4820;50.870;4.702;2023-09-18T10:49:12;22.40;99.90
9564;DHT22;4820;50.870;4.702;2023-09-18T10:51:38;22.50;99.90
9564;DHT22;4820;50.870;4.702;2023-09-18T10:54:13;22.60;99.90
9564;DHT22;4820;50.870;4.702;2023-09-18T10:56:43;22.70;99.90
9564;DHT22;4820;50.870;4.702;2023-09-18T10:59:09;22.80;99.90
9564;DHT22;4820;50.870;4.702;2023-09-18T11:01:36;22.90;99.90
9564;DHT22;4820;50.870;4.702;2023-09-18T11:04:04;22.90;99.90
9564;DHT22;4820;50.870;4.702;2023-09-18T11:09:30;23.10;99.90
9564;DHT22;4820;50.870;4.702;2023-09-18T11:12:04;23.20;99.90
9564;DHT22;4820;50.870;4.702;2023-09-18T11:14:58;23.20;99.90
9564;DHT22;4820;50.870;4.702;2023-09-18T11:20:16;23.40;99.90
9564;DHT22;4820;50.870;4.702;2023-09-18T11:22:57;23.30;99.90
9564;DHT22;4820;50.870;4.702;2023-09-18T11:25:35;23.20;99.90
9564;DHT22;4820;50.870;4.702;2023-09-18T11:28:03;23.10;99.90
9564;DHT22;4820;50.870;4.702;2023-09-18T11:30:33;23.00;99.90
9564;DHT22;4820;50.870;4.702;2023-09-18T11:33:04;22.90;99.90
9564;DHT22;4820;50.870;4.702;2023-09-18T11:35:32;23.00;99.90
9564;DHT22;4820;50.870;4.702;2023-09-18T11:38:06;23.10;99.90
9564;DHT22;4820;50.870;4.702;2023-09-18T11:40:34;23.10;99.90
9564;DHT22;4820;50.870;4.702;2023-09-18T11:43:26;23.10;99.90
9564;DHT22;4820;50.870;4.702;2023-09-18T11:45:56;23.10;99.90
9564;DHT22;4820;50.870;4.702;2023-09-18T11:48:23;23.10;99.90
9564;DHT22;4820;50.870;4.702;2023-09-18T11:50:53;23.00;99.90
9564;DHT22;4820;50.870;4.702;2023-09-18T11:53:20;23.00;99.90
9564;DHT22;4820;50.870;4.702;2023-09-18T11:55:48;22.90;99.90
9564;DHT22;4820;50.870;4.702;2023-09-18T11:58:17;23.00;99.90
9564;DHT22;4820;50.870;4.702;2023-09-18T12:00:46;23.00;99.90
9564;DHT22;4820;50.870;4.702;2023-09-18T12:05:44;22.90;99.90
9564;DHT22;4820;50.870;4.702;2023-09-18T12:08:11;22.80;99.90
9564;DHT22;4820;50.870;4.702;2023-09-18T12:10:39;22.90;99.90
9564;DHT22;4820;50.870;4.702;2023-09-18T12:13:06;22.90;99.90
9564;DHT22;4820;50.870;4.702;2023-09-18T12:15:37;23.00;99.90
9564;DHT22;4820;50.870;4.702;2023-09-18T12:18:09;23.10;99.90
9564;DHT22;4820;50.870;4.702;2023-09-18T12:20:37;23.10;99.90
9564;DHT22;4820;50.870;4.702;2023-09-18T12:23:04;23.20;99.90
9564;DHT22;4820;50.870;4.702;2023-09-18T12:25:29;23.30;99.90
9564;DHT22;4820;50.870;4.702;2023-09-18T12:27:55;23.40;99.90
9564;DHT22;4820;50.870;4.702;2023-09-18T12:30:23;23.40;99.90
9564;DHT22;4820;50.870;4.702;2023-09-18T12:32:52;23.50;99.90
9564;DHT22;4820;50.870;4.702;2023-09-18T12:35:18;23.50;99.90
9564;DHT22;4820;50.870;4.702;2023-09-18T12:37:44;23.50;99.90
9564;DHT22;4820;50.870;4.702;2023-09-18T12:40:30;23.60;99.90
9564;DHT22;4820;50.870;4.702;2023-09-18T12:42:57;23.60;99.90
9564;DHT22;4820;50.870;4.702;2023-09-18T12:45:27;23.60;99.90
9564;DHT22;4820;50.870;4.702;2023-09-18T12:47:55;23.70;99.90
9564;DHT22;4820;50.870;4.702;2023-09-18T12:50:22;23.80;99.90
9564;DHT22;4820;50.870;4.702;2023-09-18T12:52:48;23.90;99.90
9564;DHT22;4820;50.870;4.702;2023-09-18T12:55:26;24.00;99.90
9564;DHT22;4820;50.870;4.702;2023-09-18T12:57:53;24.10;99.90
9564;DHT22;4820;50.870;4.702;2023-09-18T13:00:20;24.10;99.90
9564;DHT22;4820;50.870;4.702;2023-09-18T13:02:52;24.10;99.90
9564;DHT22;4820;50.870;4.702;2023-09-18T13:05:23;24.10;99.90
9564;DHT22;4820;50.870;4.702;2023-09-18T13:07:53;24.10;99.90
9564;DHT22;4820;50.870;4.702;2023-09-18T13:10:19;24.20;99.90
9564;DHT22;4820;50.870;4.702;2023-09-18T13:12:51;24.30;99.90
9564;DHT22;4820;50.870;4.702;2023-09-18T13:15:30;24.30;99.90
9564;DHT22;4820;50.870;4.702;2023-09-18T13:18:00;24.40;99.90
9564;DHT22;4820;50.870;4.702;2023-09-18T13:20:29;24.40;99.90
9564;DHT22;4820;50.870;4.702;2023-09-18T13:22:59;24.40;99.90
9564;DHT22;4820;50.870;4.702;2023-09-18T13:25:35;24.50;99.90
9564;DHT22;4820;50.870;4.702;2023-09-18T13:28:02;24.40;99.90
9564;DHT22;4820;50.870;4.702;2023-09-18T13:30:30;24.30;99.90
9564;DHT22;4820;50.870;4.702;2023-09-18T13:35:34;24.30;99.90
9564;DHT22;4820;50.870;4.702;2023-09-18T13:37:59;24.30;99.90
9564;DHT22;4820;50.870;4.702;2023-09-18T13:40:25;24.30;99.90
9564;DHT22;4820;50.870;4.702;2023-09-18T13:42:51;24.30;99.90
9564;DHT22;4820;50.870;4.702;2023-09-18T13:45:17;24.30;99.90
9564;DHT22;4820;50.870;4.702;2023-09-18T13:47:43;24.20;99.90
9564;DHT22;4820;50.870;4.702;2023-09-18T13:50:09;24.30;99.90
9564;DHT22;4820;50.870;4.702;2023-09-18T13:52:36;24.30;99.90
9564;DHT22;4820;50.870;4.702;2023-09-18T13:55:03;24.30;99.90
9564;DHT22;4820;50.870;4.702;2023-09-18T13:57:31;24.20;99.90
9564;DHT22;4820;50.870;4.702;2023-09-18T14:00:00;24.20;99.90
9564;DHT22;4820;50.870;4.702;2023-09-18T14:02:26;24.20;99.90
9564;DHT22;4820;50.870;4.702;2023-09-18T14:04:56;24.20;99.90
9564;DHT22;4820;50.870;4.702;2023-09-18T14:07:21;24.30;99.90
9564;DHT22;4820;50.870;4.702;2023-09-18T14:09:49;24.40;99.90
9564;DHT22;4820;50.870;4.702;2023-09-18T14:12:15;24.40;99.90
9564;DHT22;4820;50.870;4.702;2023-09-18T14:14:41;24.40;99.90
9564;DHT22;4820;50.870;4.702;2023-09-18T14:17:10;24.40;99.90
9564;DHT22;4820;50.870;4.702;2023-09-18T14:19:36;24.30;99.90
9564;DHT22;4820;50.870;4.702;2023-09-18T14:22:06;24.40;99.90
9564;DHT22;4820;50.870;4.702;2023-09-18T14:24:32;24.40;99.90
9564;DHT22;4820;50.870;4.702;2023-09-18T14:27:00;24.40;99.90
9564;DHT22;4820;50.870;4.702;2023-09-18T14:29:26;24.30;99.90
9564;DHT22;4820;50.870;4.702;2023-09-18T14:31:52;24.30;99.90
9564;DHT22;4820;50.870;4.702;2023-09-18T14:34:19;24.20;99.90
9564;DHT22;4820;50.870;4.702;2023-09-18T14:36:45;24.10;99.90
9564;DHT22;4820;50.870;4.702;2023-09-18T14:39:12;24.10;99.90
9564;DHT22;4820;50.870;4.702;2023-09-18T14:41:38;24.00;99.90
9564;DHT22;4820;50.870;4.702;2023-09-18T14:44:07;24.00;99.90
9564;DHT22;4820;50.870;4.702;2023-09-18T14:46:34;23.80;99.90
9564;DHT22;4820;50.870;4.702;2023-09-18T14:49:07;23.80;99.90
9564;DHT22;4820;50.870;4.702;2023-09-18T14:51:34;23.80;99.90
9564;DHT22;4820;50.870;4.702;2023-09-18T14:54:00;23.70;99.90
9564;DHT22;4820;50.870;4.702;2023-09-18T14:56:27;23.70;99.90
9564;DHT22;4820;50.870;4.702;2023-09-18T14:58:53;23.60;99.90
9564;DHT22;4820;50.870;4.702;2023-09-18T15:01:21;23.60;99.90
9564;DHT22;4820;50.870;4.702;2023-09-18T15:03:47;23.50;99.90
9564;DHT22;4820;50.870;4.702;2023-09-18T15:06:15;23.50;99.90
9564;DHT22;4820;50.870;4.702;2023-09-18T15:08:42;23.40;99.90
9564;DHT22;4820;50.870;4.702;2023-09-18T15:11:10;23.20;99.90
9564;DHT22;4820;50.870;4.702;2023-09-18T15:13:38;23.10;99.90
9564;DHT22;4820;50.870;4.702;2023-09-18T15:16:05;22.70;99.90
9564;DHT22;4820;50.870;4.702;2023-09-18T15:18:32;22.10;99.90
9564;DHT22;4820;50.870;4.702;2023-09-18T15:20:57;21.50;99.90
9564;DHT22;4820;50.870;4.702;2023-09-18T15:23:23;21.00;99.90
9564;DHT22;4820;50.870;4.702;2023-09-18T15:25:51;20.60;99.90
9564;DHT22;4820;50.870;4.702;2023-09-18T15:28:20;20.50;99.90
9564;DHT22;4820;50.870;4.702;2023-09-18T15:30:47;20.50;99.90
9564;DHT22;4820;50.870;4.702;2023-09-18T15:33:13;20.40;99.90
9564;DHT22;4820;50.870;4.702;2023-09-18T15:35:41;20.30;99.90
9564;DHT22;4820;50.870;4.702;2023-09-18T15:38:07;20.30;99.90
9564;DHT22;4820;50.870;4.702;2023-09-18T15:40:33;20.30;99.90
9564;DHT22;4820;50.870;4.702;2023-09-18T15:43:00;20.30;99.90
9564;DHT22;4820;50.870;4.702;2023-09-18T15:45:26;20.20;99.90
9564;DHT22;4820;50.870;4.702;2023-09-18T15:47:52;20.20;99.90
9564;DHT22;4820;50.870;4.702;2023-09-18T15:50:17;20.30;99.90
9564;DHT22;4820;50.870;4.702;2023-09-18T15:52:44;20.30;99.90
9564;DHT22;4820;50.870;4.702;2023-09-18T15:55:10;20.30;99.90
9564;DHT22;4820;50.870;4.702;2023-09-18T15:57:37;20.30;99.90
9564;DHT22;4820;50.870;4.702;2023-09-18T16:00:06;20.30;99.90
9564;DHT22;4820;50.870;4.702;2023-09-18T16:02:32;20.40;99.90
9564;DHT22;4820;50.870;4.702;2023-09-18T16:04:59;20.40;99.90
9564;DHT22;4820;50.870;4.702;2023-09-18T16:07:26;20.50;99.90
9564;DHT22;4820;50.870;4.702;2023-09-18T16:09:52;20.50;99.90
9564;DHT22;4820;50.870;4.702;2023-09-18T16:12:19;20.60;99.90
9564;DHT22;4820;50.870;4.702;2023-09-18T16:14:45;20.70;99.90
9564;DHT22;4820;50.870;4.702;2023-09-18T16:17:10;20.80;99.90
9564;DHT22;4820;50.870;4.702;2023-09-18T16:19:37;20.90;99.90